Time;durP1;ratioP1;P1;durP2;ratioP2;P2;SDS_P1;SDS_P2;PMS_P1;PMS_P2;Temp;Humidity;BMP_temperature;BMP_pressure;BME280_temperature;BME280_humidity;BME280_pressure;Samples;Min_cycle;Max_cycle;Signal;HPM_P1;HPM_P2
2022/01/18 00:00:34;;;;;;;4.13;2.40;;;;;;;2.50;100.00;94879.44;5074409;28;20200;-82
2022/01/18 00:03:08;;;;;;;3.90;2.70;;;;;;;2.55;100.00;94886.63;5094029;28;20262;-81
2022/01/18 00:05:37;;;;;;;3.30;2.60;;;;;;;2.52;100.00;94886.94;5094331;28;20212;-81
2022/01/18 00:08:11;;;;;;;4.43;2.90;;;;;;;2.48;100.00;94875.44;5094078;28;20225;-82
2022/01/18 00:10:41;;;;;;;3.33;2.60;;;;;;;2.45;100.00;94884.25;5093951;28;20723;-81
2022/01/18 00:13:25;;;;;;;4.63;3.17;;;;;;;2.40;100.00;94891.63;5093756;28;20206;-81
2022/01/18 00:16:10;;;;;;;5.23;3.40;;;;;;;2.43;100.00;94888.72;5074682;28;20202;-83
2022/01/18 00:18:40;;;;;;;4.00;3.20;;;;;;;2.43;100.00;94901.56;5074230;28;20197;-83
2022/01/18 00:21:23;;;;;;;4.60;3.40;;;;;;;2.44;100.00;94908.28;5081095;28;20580;-84
2022/01/18 00:23:56;;;;;;;4.97;3.43;;;;;;;2.46;100.00;94900.41;5093655;28;20693;-83
2022/01/18 00:26:29;;;;;;;5.73;3.70;;;;;;;2.51;100.00;94923.84;5093997;28;20641;-83
2022/01/18 00:29:04;;;;;;;4.90;3.33;;;;;;;2.52;100.00;94933.13;5093672;28;20251;-83
2022/01/18 00:31:57;;;;;;;4.93;3.53;;;;;;;2.56;100.00;94912.13;5093893;28;20694;-83
2022/01/18 00:34:28;;;;;;;5.20;3.70;;;;;;;2.57;100.00;94900.88;5093091;28;20200;-82
2022/01/18 00:37:00;;;;;;;4.60;3.43;;;;;;;2.52;100.00;94908.28;5092434;28;20253;-82
2022/01/18 00:39:31;;;;;;;5.77;3.40;;;;;;;2.61;100.00;94915.00;5092397;28;20214;-82
2022/01/18 00:42:02;;;;;;;5.20;3.53;;;;;;;2.54;98.89;94890.19;5076011;28;20208;-80
2022/01/18 00:44:32;;;;;;;6.20;3.70;;;;;;;2.63;97.24;94914.81;5073488;28;20656;-81
2022/01/18 00:47:05;;;;;;;5.17;3.73;;;;;;;2.60;96.44;94933.91;5073544;28;20249;-81
2022/01/18 00:49:42;;;;;;;5.90;3.73;;;;;;;2.53;96.09;94907.31;5073216;28;20692;-83
2022/01/18 00:52:11;;;;;;;6.33;4.10;;;;;;;2.61;95.99;94939.84;5092592;28;20205;-81
2022/01/18 00:54:44;;;;;;;5.10;3.87;;;;;;;2.58;95.86;94948.66;5078944;28;20577;-81
2022/01/18 00:57:19;;;;;;;6.87;4.20;;;;;;;2.57;96.28;94964.22;5086852;28;20203;-81
2022/01/18 00:59:51;;;;;;;7.37;4.37;;;;;;;2.63;96.14;94964.38;5072943;28;20189;-84
2022/01/18 01:03:01;;;;;;;7.07;4.23;;;;;;;2.62;95.28;94980.75;5073331;28;20265;-83
2022/01/18 01:05:31;;;;;;;6.30;4.10;;;;;;;2.69;95.74;94980.88;5073148;28;20197;-84
2022/01/18 01:08:00;;;;;;;5.60;4.30;;;;;;;2.74;97.05;94982.00;5072980;28;20189;-83
2022/01/18 01:10:32;;;;;;;9.00;4.63;;;;;;;2.69;100.00;94997.06;5086493;28;20291;-84
2022/01/18 01:13:00;;;;;;;6.93;4.57;;;;;;;2.68;100.00;94989.56;5090624;28;20203;-84
2022/01/18 01:15:31;;;;;;;7.90;4.60;;;;;;;2.68;100.00;95002.38;5086048;28;20214;-80
2022/01/18 01:18:18;;;;;;;7.70;5.10;;;;;;;2.67;100.00;95016.97;5091410;28;20204;-83
2022/01/18 01:32:42;;;;;;;5.67;4.00;;;;;;;1.99;100.00;95059.94;5092909;28;20214;-82
2022/01/18 01:35:14;;;;;;;4.10;3.20;;;;;;;1.85;100.00;95059.78;5080512;28;20245;-82
2022/01/18 01:43:23;;;;;;;4.83;3.70;;;;;;;1.47;100.00;95050.78;5092443;28;20197;-85
2022/01/18 01:45:54;;;;;;;5.57;3.90;;;;;;;1.37;100.00;95050.09;5092132;28;20182;-86
2022/01/18 01:48:35;;;;;;;6.10;4.20;;;;;;;1.36;100.00;95059.53;5092570;28;20183;-87
2022/01/18 01:51:05;;;;;;;7.17;4.80;;;;;;;1.29;100.00;95063.66;5092125;28;20589;-84
2022/01/18 01:53:41;;;;;;;6.97;4.93;;;;;;;1.22;100.00;95049.03;5092431;28;20211;-85
2022/01/18 01:56:09;;;;;;;7.47;4.73;;;;;;;1.20;100.00;95036.41;5092367;28;20213;-84
2022/01/18 01:58:40;;;;;;;7.83;4.70;;;;;;;1.22;100.00;95047.28;5092051;28;20206;-86
2022/01/18 02:01:09;;;;;;;4.90;3.57;;;;;;;1.21;100.00;95043.13;5092316;28;20327;-85
2022/01/18 02:03:46;;;;;;;5.87;3.90;;;;;;;1.23;100.00;95055.78;5072819;28;20207;-85
2022/01/18 02:06:16;;;;;;;5.43;3.53;;;;;;;1.29;100.00;95075.66;5072795;28;20336;-86
2022/01/18 02:08:45;;;;;;;3.97;2.90;;;;;;;1.21;100.00;95078.16;5099216;28;20251;-85
2022/01/18 02:11:14;;;;;;;5.40;3.00;;;;;;;1.08;100.00;95087.03;5107617;28;20253;-85
2022/01/18 02:13:59;;;;;;;3.50;2.57;;;;;;;0.93;97.65;95075.72;5092232;28;20250;-84
2022/01/18 02:22:54;;;;;;;3.10;2.10;;;;;;;0.89;90.97;95143.50;5092254;28;20255;-83
2022/01/18 02:25:25;;;;;;;2.90;1.90;;;;;;;0.81;89.89;95133.16;5091791;28;20236;-83
2022/01/18 02:27:58;;;;;;;3.13;2.20;;;;;;;0.76;88.21;95152.47;5091791;28;20204;-82
2022/01/18 02:30:26;;;;;;;2.90;2.00;;;;;;;0.71;87.39;95152.91;5091485;28;20225;-82
2022/01/18 02:33:05;;;;;;;4.17;2.10;;;;;;;0.66;85.67;95149.19;5091846;28;20291;-80
2022/01/18 02:35:34;;;;;;;5.03;2.17;;;;;;;0.62;86.05;95158.09;5091858;28;20766;-81
2022/01/18 02:38:07;;;;;;;2.40;1.90;;;;;;;0.63;84.37;95157.16;5091523;28;20234;-80
2022/01/18 02:40:40;;;;;;;4.57;2.00;;;;;;;0.67;82.68;95161.81;5091131;28;20213;-81
2022/01/18 02:46:03;;;;;;;2.00;1.80;;;;;;;0.65;81.51;95191.03;5092336;28;20199;-82
2022/01/18 02:48:31;;;;;;;3.30;2.00;;;;;;;0.51;81.52;95198.25;5092805;28;20193;-83
2022/01/18 02:51:03;;;;;;;2.10;1.77;;;;;;;0.53;81.01;95210.88;5092669;28;20196;-82
2022/01/18 02:56:42;;;;;;;3.70;2.27;;;;;;;0.42;81.41;95232.34;5141836;27;20552;-81
2022/01/18 02:59:18;;;;;;;3.83;2.33;;;;;;;0.39;80.78;95214.72;5123709;28;20203;-82
2022/01/18 03:04:40;;;;;;;3.47;2.00;;;;;;;0.12;80.99;95209.59;5122834;28;20219;-84
2022/01/18 03:07:09;;;;;;;2.30;2.00;;;;;;;0.07;81.34;95208.41;5123949;28;20191;-82
2022/01/18 03:09:37;;;;;;;2.57;2.00;;;;;;;0.06;80.58;95217.81;5118382;28;20282;-85
2022/01/18 03:12:10;;;;;;;2.67;2.03;;;;;;;-0.05;81.81;95218.00;5115407;28;20233;-85
2022/01/18 03:14:40;;;;;;;3.60;2.23;;;;;;;-0.09;82.26;95224.34;5126006;28;20696;-85
2022/01/18 03:17:09;;;;;;;3.93;2.30;;;;;;;-0.12;82.29;95237.38;5130094;27;20199;-85
2022/01/18 03:19:48;;;;;;;3.37;2.00;;;;;;;-0.16;82.35;95221.53;5127893;27;20195;-85
2022/01/18 03:22:17;;;;;;;4.33;2.50;;;;;;;-0.21;82.54;95221.16;5127446;28;20232;-85
2022/01/18 03:24:51;;;;;;;2.57;2.10;;;;;;;-0.24;82.89;95239.28;5130001;28;20202;-86
2022/01/18 03:30:12;;;;;;;4.67;2.50;;;;;;;-0.24;82.29;95226.53;5110699;28;20184;-85
2022/01/18 03:32:41;;;;;;;2.97;2.47;;;;;;;-0.29;82.93;95228.66;5129368;27;20258;-85
2022/01/18 03:35:12;;;;;;;5.03;2.27;;;;;;;-0.33;82.65;95234.19;5125185;28;20315;-84
2022/01/18 03:37:43;;;;;;;2.40;2.03;;;;;;;-0.34;82.69;95225.72;5129746;27;20575;-84
2022/01/18 03:40:13;;;;;;;3.73;2.63;;;;;;;-0.37;83.02;95248.97;5129833;27;20249;-86
2022/01/18 03:42:47;;;;;;;3.27;2.30;;;;;;;-0.33;82.45;95242.66;5129413;27;20203;-84
2022/01/18 03:45:19;;;;;;;3.00;2.27;;;;;;;-0.37;82.81;95251.53;5128814;27;20222;-83
2022/01/18 03:47:48;;;;;;;3.03;2.43;;;;;;;-0.37;82.65;95243.88;5135550;27;20700;-80
2022/01/18 03:50:18;;;;;;;4.37;3.37;;;;;;;-0.32;82.50;95233.28;5139256;27;20207;-80
2022/01/18 03:52:47;;;;;;;10.90;6.60;;;;;;;-0.30;82.71;95247.50;5142124;27;20200;-82
2022/01/18 03:55:21;;;;;;;5.93;3.30;;;;;;;-0.29;82.29;95282.28;5144428;27;20242;-81
2022/01/18 03:57:52;;;;;;;3.83;2.70;;;;;;;-0.26;82.40;95255.69;5132584;27;20234;-85
2022/01/18 04:00:25;;;;;;;3.63;2.40;;;;;;;-0.28;82.11;95266.03;5118708;28;20180;-81
2022/01/18 04:03:09;;;;;;;8.07;2.90;;;;;;;-0.28;82.30;95271.13;5122760;28;20196;-83
2022/01/18 04:05:37;;;;;;;4.17;2.90;;;;;;;-0.30;82.52;95273.03;5128104;27;20227;-82
2022/01/18 04:08:16;;;;;;;5.10;3.00;;;;;;;-0.31;82.28;95266.31;5124957;28;20211;-82
2022/01/18 04:10:53;;;;;;;4.80;2.80;;;;;;;-0.32;81.91;95284.31;5120414;28;20208;-82
2022/01/18 04:13:23;;;;;;;4.30;2.70;;;;;;;-0.36;81.91;95294.00;5115184;28;20196;-82
2022/01/18 04:15:53;;;;;;;4.77;2.97;;;;;;;-0.36;82.44;95323.81;5115788;28;20195;-82
2022/01/18 04:18:29;;;;;;;3.40;2.23;;;;;;;-0.39;82.25;95337.66;5115497;28;20678;-82
2022/01/18 04:29:28;;;;;;;6.27;3.20;;;;;;;-0.37;82.25;95347.72;5067620;28;20216;-82
2022/01/18 04:31:56;;;;;;;7.10;3.47;;;;;;;-0.44;82.27;95352.59;5114812;28;20200;-84
2022/01/18 04:34:28;;;;;;;7.77;4.10;;;;;;;-0.43;82.64;95369.50;5101246;28;20196;-83
2022/01/18 04:36:57;;;;;;;6.27;3.53;;;;;;;-0.41;82.41;95367.63;5094234;28;20284;-84
2022/01/18 04:39:36;;;;;;;5.23;2.90;;;;;;;-0.47;82.29;95375.81;5111862;28;20571;-83
2022/01/18 04:42:14;;;;;;;5.97;3.50;;;;;;;-0.42;82.44;95383.88;5114396;28;20654;-83
2022/01/18 04:50:25;;;;;;;8.83;5.10;;;;;;;-0.43;81.87;95410.34;5090035;28;20201;-83
2022/01/18 04:52:54;;;;;;;7.50;4.10;;;;;;;-0.37;81.62;95402.16;5113525;28;20236;-71
2022/01/18 04:55:32;;;;;;;11.73;4.80;;;;;;;-0.35;81.55;95409.69;5112756;28;20228;-72
2022/01/18 04:58:01;;;;;;;7.10;3.90;;;;;;;-0.37;81.38;95414.09;5112744;28;20670;-71
2022/01/18 05:00:32;;;;;;;9.77;4.27;;;;;;;-0.34;81.94;95413.84;5113038;28;20287;-71
2022/01/18 05:03:03;;;;;;;7.83;4.60;;;;;;;-0.38;82.05;95403.09;5113202;27;20208;-71
2022/01/18 05:05:36;;;;;;;10.07;4.53;;;;;;;-0.39;81.40;95421.91;5112985;28;20308;-71
2022/01/18 05:08:12;;;;;;;5.67;3.63;;;;;;;-0.35;81.12;95427.56;5112815;28;20276;-71
2022/01/18 05:10:42;;;;;;;8.03;4.47;;;;;;;-0.33;81.67;95431.59;5112984;28;20688;-71
2022/01/18 05:13:25;;;;;;;10.13;5.07;;;;;;;-0.33;82.00;95443.53;5112974;28;20200;-71
2022/01/18 05:16:07;;;;;;;10.60;5.50;;;;;;;-0.28;81.37;95431.19;5112054;28;20207;-70
2022/01/18 05:19:08;;;;;;;10.73;5.30;;;;;;;-0.28;81.29;95456.72;5106481;28;20296;-71
2022/01/18 05:22:57;;;;;;;11.57;5.87;;;;;;;-0.21;81.40;95468.84;5112003;28;20195;-71
2022/01/18 05:24:29;;;;;;;10.80;5.50;;;;;;;-0.18;80.87;95467.75;5112292;28;20204;-71
2022/01/18 05:26:58;;;;;;;10.37;5.73;;;;;;;-0.22;80.83;95459.56;5112696;28;20314;-71
2022/01/18 05:29:26;;;;;;;12.23;5.50;;;;;;;-0.29;81.54;95473.78;5111827;28;20261;-71
2022/01/18 05:31:57;;;;;;;8.97;5.30;;;;;;;-0.36;81.67;95487.19;5112160;28;20204;-71
2022/01/18 05:34:24;;;;;;;8.13;4.33;;;;;;;-0.30;81.78;95502.00;5107346;28;20204;-71
2022/01/18 05:36:52;;;;;;;8.03;4.50;;;;;;;-0.29;81.17;95494.19;5111869;28;20196;-71
2022/01/18 05:39:20;;;;;;;10.30;5.10;;;;;;;-0.27;81.75;95506.84;5111524;28;20674;-71
2022/01/18 05:41:49;;;;;;;9.83;5.53;;;;;;;-0.29;82.04;95501.06;5112004;28;20204;-71
2022/01/18 05:44:22;;;;;;;9.33;5.40;;;;;;;-0.27;81.71;95500.00;5111799;28;20228;-71
2022/01/18 05:46:50;;;;;;;9.57;5.70;;;;;;;-0.30;82.49;95496.91;5097042;28;20224;-71
2022/01/18 05:49:20;;;;;;;10.43;5.40;;;;;;;-0.34;82.11;95500.63;5093815;28;20200;-71
2022/01/18 05:51:49;;;;;;;8.40;5.00;;;;;;;-0.34;82.40;95508.28;5103907;28;20204;-70
2022/01/18 05:54:17;;;;;;;8.50;4.60;;;;;;;-0.37;81.97;95506.81;5103379;28;20200;-70
2022/01/18 05:56:44;;;;;;;13.87;6.13;;;;;;;-0.37;82.57;95518.78;5106941;28;20195;-71
2022/01/18 05:59:21;;;;;;;13.60;6.03;;;;;;;-0.38;82.22;95522.28;5103896;28;20269;-70
2022/01/18 06:01:51;;;;;;;13.13;5.97;;;;;;;-0.30;81.99;95530.09;5107011;28;20207;-70
2022/01/18 06:07:01;;;;;;;19.20;7.77;;;;;;;-0.33;82.52;95531.16;5103312;28;20227;-70
2022/01/18 06:09:29;;;;;;;17.03;8.30;;;;;;;-0.29;82.08;95542.72;5105820;28;20313;-76
2022/01/18 06:11:56;;;;;;;18.97;8.07;;;;;;;-0.29;82.05;95545.25;5099775;28;20667;-70
2022/01/18 06:14:23;;;;;;;11.93;6.13;;;;;;;-0.24;81.56;95550.00;5105879;28;20212;-70
2022/01/18 06:16:51;;;;;;;24.07;8.97;;;;;;;-0.21;81.51;95562.50;5104174;28;20305;-73
2022/01/18 06:19:20;;;;;;;17.87;7.87;;;;;;;-0.24;81.97;95552.56;5104020;28;20203;-70
2022/01/18 06:21:47;;;;;;;12.77;6.50;;;;;;;-0.35;82.27;95571.34;5100816;28;20807;-70
2022/01/18 06:24:15;;;;;;;12.83;7.13;;;;;;;-0.32;82.51;95576.19;5103136;28;20205;-70
2022/01/18 06:26:43;;;;;;;13.47;7.43;;;;;;;-0.26;82.22;95588.41;5102742;27;20258;-70
2022/01/18 06:29:12;;;;;;;13.80;7.13;;;;;;;-0.39;82.85;95592.13;5106729;28;20212;-70
2022/01/18 06:31:41;;;;;;;9.97;5.57;;;;;;;-0.36;82.72;95579.13;5099488;28;20209;-70
2022/01/18 06:34:10;;;;;;;13.43;5.47;;;;;;;-0.30;82.89;95599.03;5107856;28;20196;-70
2022/01/18 06:36:40;;;;;;;14.80;7.73;;;;;;;-0.21;82.61;95593.97;5106409;28;20211;-70
2022/01/18 06:39:08;;;;;;;18.83;7.93;;;;;;;-0.22;82.34;95594.91;5106795;28;20231;-70
2022/01/18 06:41:36;;;;;;;23.50;11.50;;;;;;;-0.23;82.88;95592.50;5107738;28;20204;-70
2022/01/18 06:44:04;;;;;;;15.80;8.20;;;;;;;-0.21;82.41;95588.88;5100313;28;20200;-74
2022/01/18 06:46:33;;;;;;;15.07;7.77;;;;;;;-0.19;82.96;95586.97;5100596;28;20216;-74
2022/01/18 06:49:01;;;;;;;15.63;6.60;;;;;;;-0.33;83.89;95574.56;5097611;28;20192;-74
2022/01/18 06:51:31;;;;;;;15.53;7.90;;;;;;;-0.34;83.22;95562.72;5095115;28;20200;-71
2022/01/18 06:54:02;;;;;;;21.33;10.20;;;;;;;-0.17;83.12;95579.16;5098258;28;20199;-70
2022/01/18 06:56:30;;;;;;;16.67;8.03;;;;;;;-0.17;83.17;95582.53;5095410;28;20716;-71
2022/01/18 06:58:58;;;;;;;12.00;6.47;;;;;;;-0.23;83.34;95593.28;5103144;28;20652;-80
2022/01/18 07:01:26;;;;;;;11.67;5.97;;;;;;;-0.26;83.67;95590.97;5096943;28;20678;-76
2022/01/18 07:03:54;;;;;;;12.63;6.60;;;;;;;-0.23;84.10;95602.69;5103703;28;20214;-80
2022/01/18 07:06:22;;;;;;;8.93;5.60;;;;;;;-0.21;83.52;95608.47;5102654;28;20228;-81
2022/01/18 07:08:49;;;;;;;12.87;5.47;;;;;;;-0.23;83.87;95613.69;5098836;28;20634;-81
2022/01/18 07:11:19;;;;;;;11.97;5.30;;;;;;;-0.27;83.79;95629.41;5100806;28;20233;-81
2022/01/18 07:13:47;;;;;;;6.13;3.90;;;;;;;-0.21;82.81;95616.13;5094880;28;20283;-82
2022/01/18 07:16:14;;;;;;;7.07;4.13;;;;;;;-0.19;83.06;95627.84;5098476;28;20197;-81
2022/01/18 07:18:43;;;;;;;8.37;5.10;;;;;;;-0.21;83.66;95623.81;5104953;28;20220;-80
2022/01/18 07:21:15;;;;;;;14.77;7.23;;;;;;;-0.19;83.43;95634.69;5094838;28;20663;-82
2022/01/18 07:23:43;;;;;;;10.97;5.93;;;;;;;-0.21;83.76;95631.47;5097923;28;20697;-81
2022/01/18 07:26:11;;;;;;;7.10;4.27;;;;;;;-0.15;82.88;95638.63;5094694;28;20258;-80
2022/01/18 07:28:40;;;;;;;13.80;5.40;;;;;;;-0.22;83.44;95637.50;5095221;28;20193;-80
2022/01/18 07:31:10;;;;;;;9.43;5.80;;;;;;;-0.18;84.49;95661.84;5097375;28;20249;-77
2022/01/18 07:33:39;;;;;;;6.87;4.40;;;;;;;-0.22;83.68;95643.41;5093064;28;20227;-80
2022/01/18 07:36:07;;;;;;;11.90;5.00;;;;;;;-0.30;84.59;95650.09;5092885;28;20207;-80
2022/01/18 07:38:42;;;;;;;6.70;3.77;;;;;;;-0.34;84.45;95641.88;5103326;28;20203;-84
2022/01/18 07:41:09;;;;;;;8.77;4.70;;;;;;;-0.40;84.63;95644.13;5102678;28;20205;-78
2022/01/18 07:43:40;;;;;;;8.97;4.60;;;;;;;-0.33;86.10;95638.41;5109133;28;20215;-77
2022/01/18 07:46:09;;;;;;;7.80;4.90;;;;;;;-0.25;85.12;95638.56;5102481;28;20750;-78
2022/01/18 07:48:38;;;;;;;7.53;3.80;;;;;;;-0.19;84.12;95642.34;5105105;28;20196;-78
2022/01/18 07:51:08;;;;;;;7.97;4.43;;;;;;;-0.15;84.78;95641.97;5104854;27;20763;-81
2022/01/18 07:53:36;;;;;;;8.67;4.70;;;;;;;-0.10;84.18;95639.84;5104689;28;20208;-81
2022/01/18 07:56:03;;;;;;;10.63;5.00;;;;;;;-0.06;84.94;95659.06;5109244;28;20224;-81
2022/01/18 07:58:31;;;;;;;8.63;5.43;;;;;;;-0.13;84.83;95644.38;5097492;28;20256;-81
2022/01/18 08:01:00;;;;;;;14.13;6.63;;;;;;;-0.09;85.80;95649.09;5096736;28;20205;-80
2022/01/18 08:03:30;;;;;;;13.43;5.87;;;;;;;-0.03;85.46;95663.91;5098875;28;20274;-80
2022/01/18 08:05:57;;;;;;;12.53;5.50;;;;;;;0.06;84.58;95672.56;5094944;28;20228;-83
2022/01/18 08:08:26;;;;;;;9.17;5.07;;;;;;;0.04;84.78;95660.84;5102113;28;20200;-84
2022/01/18 08:10:56;;;;;;;6.13;3.73;;;;;;;0.05;83.62;95654.81;5100830;28;20651;-80
2022/01/18 08:13:33;;;;;;;11.43;5.00;;;;;;;0.10;84.34;95661.16;5108812;28;20243;-78
2022/01/18 08:16:22;;;;;;;12.70;6.30;;;;;;;0.18;84.34;95675.81;5105126;28;20316;-78
2022/01/18 08:18:50;;;;;;;11.43;5.20;;;;;;;0.22;83.75;95670.34;5099238;28;20291;-78
2022/01/18 08:21:18;;;;;;;9.00;4.70;;;;;;;0.08;83.44;95680.94;5101195;28;20204;-78
2022/01/18 08:23:48;;;;;;;12.03;5.70;;;;;;;0.04;84.05;95682.09;5106056;28;20403;-77
2022/01/18 08:26:17;;;;;;;7.63;4.20;;;;;;;0.11;82.42;95690.88;5102366;28;20311;-79
2022/01/18 08:28:47;;;;;;;10.00;4.80;;;;;;;0.13;82.64;95677.97;5104423;28;20212;-77
2022/01/18 08:31:14;;;;;;;14.17;5.97;;;;;;;0.11;83.13;95688.34;5106496;28;20208;-77
2022/01/18 08:33:41;;;;;;;9.60;4.70;;;;;;;0.20;82.16;95689.31;5103617;28;20200;-77
2022/01/18 08:36:10;;;;;;;8.43;4.80;;;;;;;0.21;83.28;95694.28;5107447;28;20203;-77
2022/01/18 08:38:39;;;;;;;7.80;4.47;;;;;;;0.27;82.95;95696.31;5110939;28;20206;-77
2022/01/18 08:41:08;;;;;;;7.23;4.00;;;;;;;0.34;81.13;95707.66;5104322;28;20208;-77
2022/01/18 08:43:37;;;;;;;7.37;4.87;;;;;;;0.39;80.86;95699.59;5103909;28;20211;-77
2022/01/18 08:46:06;;;;;;;9.17;5.00;;;;;;;0.45;80.64;95709.28;5109259;28;20229;-76
2022/01/18 08:48:36;;;;;;;7.93;4.93;;;;;;;0.49;80.90;95715.78;5102777;28;20215;-77
2022/01/18 08:51:05;;;;;;;7.50;4.33;;;;;;;0.42;80.00;95709.53;5104956;28;20232;-76
2022/01/18 08:53:37;;;;;;;9.10;4.90;;;;;;;0.45;79.84;95724.63;5095453;28;20197;-77
2022/01/18 08:56:05;;;;;;;11.20;5.13;;;;;;;0.43;80.67;95718.84;5107115;28;20530;-77
2022/01/18 08:58:34;;;;;;;13.10;5.73;;;;;;;0.57;80.29;95726.16;5101237;28;20291;-77
2022/01/18 09:01:03;;;;;;;12.60;5.83;;;;;;;0.72;80.08;95719.75;5108196;28;20207;-76
2022/01/18 09:03:33;;;;;;;9.07;4.60;;;;;;;0.74;79.83;95738.31;5099143;28;20694;-77
2022/01/18 09:06:03;;;;;;;8.70;4.67;;;;;;;0.77;80.41;95734.69;5104286;27;20229;-76
2022/01/18 09:08:31;;;;;;;9.03;4.50;;;;;;;0.77;79.33;95732.94;5102751;28;20196;-77
2022/01/18 09:11:01;;;;;;;8.07;4.83;;;;;;;0.75;79.21;95737.34;5106715;28;20240;-78
2022/01/18 09:13:28;;;;;;;9.10;4.50;;;;;;;0.74;79.44;95729.81;5108474;28;20260;-76
2022/01/18 09:15:56;;;;;;;7.37;4.17;;;;;;;0.86;79.14;95739.81;5100188;28;20201;-77
2022/01/18 09:18:24;;;;;;;8.70;5.80;;;;;;;0.98;79.16;95732.84;5104654;28;20252;-77
2022/01/18 09:20:51;;;;;;;9.07;4.77;;;;;;;0.94;78.24;95734.84;5106586;28;20740;-76
2022/01/18 09:23:19;;;;;;;8.50;4.40;;;;;;;1.04;78.71;95737.41;5109132;28;20203;-77
2022/01/18 09:25:48;;;;;;;12.73;5.40;;;;;;;1.00;79.28;95739.44;5104471;28;20221;-77
2022/01/18 09:28:17;;;;;;;8.70;3.70;;;;;;;0.92;77.98;95743.59;5107644;28;20220;-76
2022/01/18 09:30:46;;;;;;;7.07;4.30;;;;;;;0.98;79.47;95738.75;5104975;28;20202;-76
2022/01/18 09:33:15;;;;;;;9.57;4.50;;;;;;;1.03;79.78;95738.38;5105446;28;20198;-76
2022/01/18 09:35:44;;;;;;;7.13;4.10;;;;;;;1.13;80.02;95726.38;5109042;28;20216;-77
2022/01/18 09:38:12;;;;;;;8.13;4.80;;;;;;;1.26;78.79;95721.00;5105428;28;20287;-77
2022/01/18 09:40:43;;;;;;;7.40;4.50;;;;;;;1.17;78.69;95726.91;5101932;28;20269;-77
2022/01/18 09:43:13;;;;;;;8.27;4.67;;;;;;;1.15;78.02;95717.59;5110292;28;20224;-77
2022/01/18 09:45:45;;;;;;;9.13;5.00;;;;;;;1.14;78.67;95707.53;5108802;28;20215;-77
2022/01/18 09:48:14;;;;;;;8.80;4.20;;;;;;;1.08;78.77;95702.94;5105175;28;20711;-77
2022/01/18 09:50:43;;;;;;;10.60;5.10;;;;;;;0.98;79.61;95702.91;5105822;28;20300;-78
2022/01/18 09:53:12;;;;;;;8.77;4.30;;;;;;;0.89;79.46;95695.25;5103772;28;20201;-77
2022/01/18 09:55:42;;;;;;;9.83;5.03;;;;;;;0.92;80.94;95688.13;5082355;28;20765;-77
2022/01/18 09:58:11;;;;;;;7.97;4.37;;;;;;;1.03;80.58;95703.34;5102826;28;20659;-76
2022/01/18 10:00:43;;;;;;;9.20;4.87;;;;;;;1.21;78.45;95707.78;5106933;28;20210;-79
2022/01/18 10:03:25;;;;;;;11.27;5.07;;;;;;;1.17;78.61;95701.31;5098203;28;20204;-78
2022/01/18 10:05:55;;;;;;;12.77;6.23;;;;;;;1.53;78.96;95710.88;5102895;28;20192;-77
2022/01/18 10:08:23;;;;;;;9.93;5.07;;;;;;;1.99;75.84;95689.63;5109275;28;20315;-77
2022/01/18 10:10:53;;;;;;;10.40;4.60;;;;;;;3.04;71.66;95708.78;5105546;28;20202;-77
2022/01/18 10:13:24;;;;;;;8.80;4.50;;;;;;;3.68;69.17;95704.22;5105278;28;20207;-77
2022/01/18 10:16:09;;;;;;;8.40;4.33;;;;;;;5.31;65.93;95698.78;5105453;28;20239;-76
2022/01/18 10:18:46;;;;;;;8.40;4.40;;;;;;;6.27;60.95;95683.25;5107888;28;20192;-79
2022/01/18 10:21:15;;;;;;;9.70;4.10;;;;;;;7.37;57.05;95695.16;5098510;28;20762;-79
2022/01/18 10:23:49;;;;;;;11.87;3.60;;;;;;;7.53;51.50;95676.13;5103368;28;20686;-78
2022/01/18 10:26:25;;;;;;;7.90;4.20;;;;;;;7.83;50.54;95678.63;5100167;28;20205;-77
2022/01/18 10:29:05;;;;;;;6.67;4.27;;;;;;;7.75;50.53;95696.00;5103377;28;20974;-77
2022/01/18 10:31:41;;;;;;;8.40;4.27;;;;;;;7.99;48.80;95706.91;5100715;28;20210;-76
2022/01/18 10:34:20;;;;;;;11.70;5.17;;;;;;;8.50;48.89;95701.94;5104551;28;20214;-78
2022/01/18 10:37:02;;;;;;;11.03;5.67;;;;;;;7.77;48.83;95679.31;5114594;28;20203;-78
2022/01/18 10:39:33;;;;;;;10.70;5.83;;;;;;;7.90;49.34;95681.31;5095350;28;20287;-78
2022/01/18 10:42:02;;;;;;;7.60;4.70;;;;;;;8.73;48.51;95679.31;5096691;28;20235;-79
2022/01/18 10:44:34;;;;;;;8.97;4.30;;;;;;;7.71;48.22;95687.75;5094387;28;20194;-78
2022/01/18 10:47:04;;;;;;;6.40;3.90;;;;;;;7.64;48.16;95699.00;5100961;28;20216;-78
2022/01/18 10:49:39;;;;;;;7.67;4.67;;;;;;;7.95;48.02;95695.31;5101425;28;20701;-77
2022/01/18 10:52:21;;;;;;;14.47;5.90;;;;;;;6.74;49.91;95708.25;5097952;28;20578;-78
2022/01/18 10:54:50;;;;;;;9.53;4.63;;;;;;;5.86;51.75;95699.00;5102179;28;20275;-77
2022/01/18 10:57:24;;;;;;;7.07;4.00;;;;;;;5.15;54.22;95699.56;5106819;28;20844;-78
2022/01/18 10:59:57;;;;;;;8.37;4.70;;;;;;;5.84;52.85;95706.84;5106069;28;20212;-78
2022/01/18 11:02:26;;;;;;;7.23;4.17;;;;;;;6.62;51.42;95699.28;5097338;28;20205;-79
2022/01/18 11:04:57;;;;;;;9.13;5.40;;;;;;;6.04;52.18;95684.91;5097294;28;20690;-79
2022/01/18 11:07:27;;;;;;;9.47;5.83;;;;;;;5.23;54.11;95691.84;5097657;28;20210;-80
2022/01/18 11:10:07;;;;;;;11.37;5.07;;;;;;;5.41;52.50;95699.44;5098359;28;20198;-78
2022/01/18 11:12:45;;;;;;;7.63;4.33;;;;;;;5.96;51.96;95695.25;5099478;28;20196;-77
2022/01/18 11:15:17;;;;;;;7.67;4.50;;;;;;;6.73;50.76;95698.91;5101873;28;20244;-78
2022/01/18 11:17:50;;;;;;;5.97;3.30;;;;;;;6.91;47.98;95683.97;5103635;28;20197;-77
2022/01/18 11:20:21;;;;;;;5.77;3.67;;;;;;;7.05;48.10;95678.06;5100686;28;20285;-77
2022/01/18 11:22:51;;;;;;;12.10;5.13;;;;;;;7.21;48.54;95688.31;5107920;28;20266;-77
2022/01/18 11:25:20;;;;;;;10.17;4.20;;;;;;;7.58;47.08;95695.31;5106706;28;20246;-78
2022/01/18 11:27:51;;;;;;;5.37;3.30;;;;;;;6.56;49.32;95685.25;5109429;28;20222;-79
2022/01/18 11:30:20;;;;;;;10.27;5.47;;;;;;;6.99;48.78;95690.84;5102084;28;20301;-77
2022/01/18 11:32:52;;;;;;;7.33;3.47;;;;;;;6.51;47.96;95679.78;5101211;28;20207;-75
2022/01/18 11:35:22;;;;;;;5.53;3.20;;;;;;;6.60;47.84;95686.53;5108205;28;20281;-76
2022/01/18 11:38:02;;;;;;;10.43;4.43;;;;;;;7.36;46.32;95689.16;5105803;28;20286;-75
2022/01/18 11:40:45;;;;;;;9.90;4.90;;;;;;;6.84;46.95;95693.34;5103315;28;20238;-76
2022/01/18 11:43:13;;;;;;;6.57;3.57;;;;;;;6.95;46.72;95702.50;5097842;28;20209;-77
2022/01/18 11:45:42;;;;;;;5.20;2.90;;;;;;;6.48;47.45;95697.38;5102934;28;20230;-78
2022/01/18 11:48:16;;;;;;;6.23;3.20;;;;;;;6.84;46.78;95688.19;5103270;28;20316;-78
2022/01/18 11:50:47;;;;;;;7.03;3.77;;;;;;;7.37;45.93;95690.78;5107753;28;20201;-78
2022/01/18 11:53:38;;;;;;;6.13;4.27;;;;;;;7.30;45.79;95697.59;5107742;28;20194;-77
2022/01/18 11:56:11;;;;;;;6.20;3.70;;;;;;;6.86;46.36;95683.66;5101221;28;20659;-77
2022/01/18 11:58:39;;;;;;;7.40;4.37;;;;;;;7.26;46.68;95721.41;5101867;28;20199;-78
2022/01/18 12:01:08;;;;;;;6.83;4.03;;;;;;;7.21;46.44;95690.09;5101225;28;20202;-77
2022/01/18 12:03:47;;;;;;;5.10;3.33;;;;;;;6.85;46.25;95703.53;5105075;28;20673;-77
2022/01/18 12:06:14;;;;;;;6.93;4.30;;;;;;;6.93;46.30;95696.69;5101392;28;20570;-78
2022/01/18 12:08:43;;;;;;;8.13;4.60;;;;;;;7.62;44.91;95704.31;5096993;28;20230;-77
2022/01/18 12:11:13;;;;;;;12.90;4.93;;;;;;;7.68;44.65;95697.66;5100370;28;20675;-78
2022/01/18 12:13:58;;;;;;;9.03;3.80;;;;;;;8.09;43.44;95698.91;5105230;28;20252;-80
2022/01/18 12:16:29;;;;;;;11.37;4.73;;;;;;;8.52;42.32;95708.53;5102159;28;20199;-78
2022/01/18 12:19:04;;;;;;;9.73;5.30;;;;;;;7.77;43.87;95707.78;5104243;28;20193;-78
2022/01/18 12:21:34;;;;;;;9.87;4.70;;;;;;;7.80;43.13;95702.25;5107276;28;20204;-77
2022/01/18 12:24:18;;;;;;;7.33;3.83;;;;;;;7.25;43.43;95697.31;5104440;28;20998;-77
2022/01/18 12:26:58;;;;;;;11.73;4.83;;;;;;;7.36;43.47;95693.53;5102624;28;20207;-77
2022/01/18 12:32:29;;;;;;;7.73;4.10;;;;;;;6.49;45.53;95688.69;5099306;28;20576;-78
2022/01/18 12:35:17;;;;;;;11.23;4.07;;;;;;;6.87;44.90;95681.91;5103312;28;20198;-77
2022/01/18 12:37:47;;;;;;;10.73;4.17;;;;;;;6.88;44.88;95678.31;5099385;28;20196;-77
2022/01/18 12:40:29;;;;;;;7.07;3.80;;;;;;;6.86;44.25;95681.09;5103234;27;20223;-77
2022/01/18 12:45:58;;;;;;;10.30;5.30;;;;;;;7.30;44.58;95686.47;5099430;28;20214;-76
2022/01/18 12:48:26;;;;;;;8.70;5.07;;;;;;;7.79;43.72;95682.50;5099946;28;20666;-76
2022/01/18 12:50:58;;;;;;;7.90;4.57;;;;;;;7.80;43.41;95699.66;5106560;28;20203;-77
2022/01/18 12:53:31;;;;;;;9.17;5.00;;;;;;;7.44;44.04;95696.84;5102397;28;20279;-77